Marousi, Greece

1:58 PM EET on December 25, 2014 (GMT +0200)
Maroussi | Change Station
CLOSE
Current Station
Personal Weather Station
Location: Athens, ATTICA
Elevation: 797 ft
Nearby Weather Stations

Elev 797 ft 38.04 °N, 23.83 °E | Updated 232 days ago

Partly Cloudy
Partly Cloudy
61 °F
Feels Like 61 °F
N
5
Wind Variable Wind from SSW
Gusts mph

Today
High -- | Low -- °F
--% Chance of Precip.
Yesterday
High -- | Low -- °F
Precip. -- in
7:38 AM 5:10 PM
Waxing Crescent, 16% visible
Pressure 30.09 in
Visibility 6.2 miles
Clouds Few 2500 ft
Dew Point 50 °F
Humidity 63%
Rainfall 0.00 in
Snow Depth Not available.
UV 2 out of 12
Pollen Not available.
Air Quality Not available.
Flu Activity Not available.
METAR LGEL 251150Z 00000KT 9999 FEW025 17/10 Q1019

More Conditions Fewer Conditions

Pressure 30.09 in
Visibility 6.2 miles
Clouds Few 2500 ft
Dew Point 50 °F
Humidity 63%
Rainfall 0.00 in
Snow Depth Not available.
UV 2 out of 12
Pollen Not available.
Air Quality Not available.
Flu Activity Not available.
METAR LGEL 251150Z 00000KT 9999 FEW025 17/10 Q1019

More Conditions Fewer Conditions

10-Day Weather Forecast

Almanac

Astronomy

Dec. 25, 2014 Rise Set
Actual Time
Civil Twilight
Nautical Twilight
Astronomical Twilight
Moon
Length of Visible Light
Length of Day
Tomorrow will be .
, % of the Moon is Illuminated

Today's Extremes

Country Highs Country Lows

Community

WunderPhotos

Upload Photos

1,780,264 photos uploaded!

WunderBlogs® & News

Nearby

Air Quality

  Air Quality AQ Index Pollutant
Not available.

Snow Depth

Station Depth Elevation

Earthquake Activity

City Distance Mag. Time & Date
Minimum magnitude displayed is 2.5.

Coastal Water Temperatures

Place Temperature

Nearby Weather Stations